createdAt,value
2022-09-30T00:00:21.718Z,21.61
2022-09-30T00:01:25.417Z,21.62
2022-09-30T00:02:27.689Z,21.62
2022-09-30T00:03:29.955Z,21.62
2022-09-30T00:04:32.047Z,21.61
2022-09-30T00:05:34.057Z,21.62
2022-09-30T00:06:36.249Z,21.62
2022-09-30T00:07:38.753Z,21.62
2022-09-30T00:08:41.459Z,21.63
2022-09-30T00:09:43.826Z,21.63
2022-09-30T00:10:46.169Z,21.63
2022-09-30T00:11:49.256Z,21.63
2022-09-30T00:12:51.677Z,21.61
2022-09-30T00:13:56.954Z,21.62
2022-09-30T00:14:59.144Z,21.60
2022-09-30T00:16:01.477Z,21.60
2022-09-30T00:17:03.630Z,21.60
2022-09-30T00:18:05.662Z,21.60
2022-09-30T00:19:10.197Z,21.59
2022-09-30T00:20:13.684Z,21.60
2022-09-30T00:21:16.180Z,21.60
2022-09-30T00:22:18.771Z,21.61
2022-09-30T00:23:21.821Z,21.60
2022-09-30T00:24:24.068Z,21.60
2022-09-30T00:25:26.182Z,21.59
2022-09-30T00:26:28.382Z,21.60
2022-09-30T00:27:30.359Z,21.59
2022-09-30T00:28:33.352Z,21.58
2022-09-30T00:29:35.432Z,21.58
2022-09-30T00:30:37.606Z,21.58
2022-09-30T00:31:40.539Z,21.58
2022-09-30T00:32:43.646Z,21.58
2022-09-30T00:33:46.003Z,21.58
2022-09-30T00:34:48.084Z,21.58
2022-09-30T00:35:50.914Z,21.58
2022-09-30T00:36:53.830Z,21.57
2022-09-30T00:39:20.573Z,21.58
2022-09-30T00:40:23.966Z,21.57
2022-09-30T00:41:26.213Z,21.57
2022-09-30T00:42:28.473Z,21.58
2022-09-30T00:43:42.122Z,21.58
2022-09-30T00:46:02.170Z,21.66
2022-09-30T00:47:05.502Z,21.55
2022-09-30T00:48:13.333Z,21.54
2022-09-30T00:49:20.418Z,21.53
2022-09-30T00:50:37.558Z,21.55
2022-09-30T00:51:42.927Z,21.55
2022-09-30T00:52:48.191Z,21.54
2022-09-30T00:53:58.344Z,21.55
2022-09-30T00:55:00.862Z,21.54
2022-09-30T00:57:27.509Z,21.65
2022-09-30T00:58:42.443Z,21.54
2022-09-30T00:59:46.665Z,21.53
2022-09-30T01:00:49.132Z,21.53
2022-09-30T01:01:52.518Z,21.52
2022-09-30T01:02:54.795Z,21.52
2022-09-30T01:04:05.719Z,21.52
2022-09-30T01:05:08.119Z,21.50
2022-09-30T01:06:10.772Z,21.51
2022-09-30T01:07:12.896Z,21.50
2022-09-30T01:08:14.872Z,21.51
2022-09-30T01:09:17.960Z,21.51
2022-09-30T01:10:20.377Z,21.51
2022-09-30T01:11:22.467Z,21.52
2022-09-30T01:12:25.372Z,21.52
2022-09-30T01:13:27.835Z,21.52
2022-09-30T01:14:30.031Z,21.53
2022-09-30T01:17:06.063Z,21.67
2022-09-30T01:18:20.748Z,21.55
2022-09-30T01:19:43.346Z,21.54
2022-09-30T01:21:08.978Z,21.54
2022-09-30T01:22:30.249Z,21.54
2022-09-30T01:23:51.541Z,21.53
2022-09-30T01:25:14.326Z,21.52
2022-09-30T01:26:26.144Z,21.51
2022-09-30T01:27:57.972Z,21.48
2022-09-30T01:29:11.951Z,21.46
2022-09-30T01:30:33.273Z,21.44
2022-09-30T01:31:55.967Z,21.42
2022-09-30T01:33:16.889Z,21.42
2022-09-30T01:34:22.909Z,21.40
2022-09-30T01:37:09.159Z,21.48
2022-09-30T01:38:32.309Z,21.38
2022-09-30T01:41:08.034Z,21.47
2022-09-30T01:42:20.167Z,21.37
2022-09-30T01:43:32.513Z,21.36
2022-09-30T01:44:42.208Z,21.36
2022-09-30T01:47:07.620Z,21.45
2022-09-30T01:48:21.865Z,21.36
2022-09-30T01:49:46.092Z,21.36
2022-09-30T01:52:28.298Z,21.46
2022-09-30T01:53:51.974Z,21.38
2022-09-30T01:55:07.288Z,21.35
2022-09-30T01:56:20.450Z,21.36
2022-09-30T01:57:30.212Z,21.37
2022-09-30T01:59:57.179Z,21.47
2022-09-30T02:00:59.938Z,21.37
2022-09-30T02:02:10.225Z,21.37
2022-09-30T02:04:36.182Z,21.51
2022-09-30T02:07:01.140Z,21.53
2022-09-30T02:08:22.798Z,21.43
2022-09-30T02:10:45.669Z,21.55
2022-09-30T02:11:47.702Z,21.45
2022-09-30T02:14:27.428Z,21.57
2022-09-30T02:17:16.253Z,21.56
2022-09-30T02:18:29.230Z,21.46
2022-09-30T02:19:40.266Z,21.44
2022-09-30T02:20:42.619Z,21.44
2022-09-30T02:21:58.067Z,21.44
2022-09-30T02:23:04.030Z,21.44
2022-09-30T02:24:09.543Z,21.43
2022-09-30T02:26:29.877Z,21.54
2022-09-30T02:27:38.333Z,21.44
2022-09-30T02:28:43.360Z,21.44
2022-09-30T02:29:48.217Z,21.44
2022-09-30T02:30:50.854Z,21.45
2022-09-30T02:31:55.692Z,21.45
2022-09-30T02:33:11.696Z,21.46
2022-09-30T02:34:17.687Z,21.48
2022-09-30T02:35:29.257Z,21.48
2022-09-30T02:37:55.645Z,21.58
2022-09-30T02:40:40.618Z,21.58
2022-09-30T02:41:50.069Z,21.49
2022-09-30T02:42:52.421Z,21.49
2022-09-30T02:43:55.031Z,21.49
2022-09-30T02:45:03.097Z,21.49
2022-09-30T02:46:11.325Z,21.49
2022-09-30T02:47:17.740Z,21.51
2022-09-30T02:49:53.876Z,21.61
2022-09-30T02:52:56.353Z,21.60
2022-09-30T02:54:21.827Z,21.50
2022-09-30T02:56:46.671Z,21.57
2022-09-30T02:57:58.930Z,21.47
2022-09-30T02:59:00.980Z,21.46
2022-09-30T03:00:06.807Z,21.46
2022-09-30T03:01:14.778Z,21.45
2022-09-30T03:02:18.335Z,21.45
2022-09-30T03:03:23.379Z,21.46
2022-09-30T03:04:27.067Z,21.47
2022-09-30T03:05:30.088Z,21.47
2022-09-30T03:06:32.474Z,21.47
2022-09-30T03:07:35.386Z,21.46
2022-09-30T03:08:38.565Z,21.47
2022-09-30T03:09:40.847Z,21.47
2022-09-30T03:10:43.865Z,21.49
2022-09-30T03:11:45.935Z,21.49
2022-09-30T03:13:06.948Z,21.49
2022-09-30T03:14:25.137Z,21.50
2022-09-30T03:17:27.648Z,21.62
2022-09-30T03:18:49.895Z,21.51
2022-09-30T03:19:58.987Z,21.49
2022-09-30T03:21:11.725Z,21.48
2022-09-30T03:23:47.499Z,21.57
2022-09-30T03:25:13.248Z,21.46
2022-09-30T03:26:22.198Z,21.46
2022-09-30T03:27:46.279Z,21.46
2022-09-30T03:30:24.813Z,21.58
2022-09-30T03:31:40.330Z,21.46
2022-09-30T03:33:01.665Z,21.45
2022-09-30T03:35:38.315Z,21.55
2022-09-30T03:36:43.669Z,21.45
2022-09-30T03:37:58.120Z,21.44
2022-09-30T03:39:06.635Z,21.43
2022-09-30T03:41:31.631Z,21.55
2022-09-30T03:44:13.508Z,21.54
2022-09-30T03:46:45.937Z,21.54
2022-09-30T03:47:52.342Z,21.44
2022-09-30T03:48:56.392Z,21.45
2022-09-30T03:50:00.457Z,21.45
2022-09-30T03:51:03.542Z,21.45
2022-09-30T03:52:11.529Z,21.47
2022-09-30T03:53:13.663Z,21.48
2022-09-30T03:54:16.311Z,21.48
2022-09-30T03:55:19.528Z,21.49
2022-09-30T03:56:29.117Z,21.49
2022-09-30T03:57:33.426Z,21.50
2022-09-30T03:58:36.295Z,21.51
2022-09-30T03:59:38.338Z,21.51
2022-09-30T04:00:46.659Z,21.50
2022-09-30T04:01:49.189Z,21.51
2022-09-30T04:02:54.688Z,21.52
2022-09-30T04:03:56.195Z,21.52
2022-09-30T04:04:59.487Z,21.53
2022-09-30T04:06:02.166Z,21.52
2022-09-30T04:07:04.161Z,21.52
2022-09-30T04:08:07.158Z,21.53
2022-09-30T04:09:09.246Z,21.52
2022-09-30T04:10:12.063Z,21.53
2022-09-30T04:11:14.071Z,21.51
2022-09-30T04:12:16.255Z,21.51
2022-09-30T04:13:18.703Z,21.51
2022-09-30T04:14:20.784Z,21.52
2022-09-30T04:15:24.243Z,21.52
2022-09-30T04:16:28.636Z,21.53
2022-09-30T04:17:31.313Z,21.53
2022-09-30T04:18:36.747Z,21.53
2022-09-30T04:19:38.994Z,21.53
2022-09-30T04:20:41.074Z,21.52
2022-09-30T04:21:44.250Z,21.53
2022-09-30T04:22:47.352Z,21.53
2022-09-30T04:23:49.742Z,21.54
2022-09-30T04:24:51.814Z,21.55
2022-09-30T04:25:55.469Z,21.55
2022-09-30T04:26:57.809Z,21.55
2022-09-30T04:28:00.314Z,21.56
2022-09-30T04:29:02.903Z,21.56
2022-09-30T04:30:06.419Z,21.56
2022-09-30T04:31:09.826Z,21.56
2022-09-30T04:32:12.031Z,21.56
2022-09-30T04:33:14.117Z,21.56
2022-09-30T04:34:17.002Z,21.56
2022-09-30T04:35:18.966Z,21.56
2022-09-30T04:36:21.217Z,21.57
2022-09-30T04:37:24.278Z,21.57
2022-09-30T04:38:26.443Z,21.57
2022-09-30T04:39:28.994Z,21.58
2022-09-30T04:40:32.210Z,21.57
2022-09-30T04:41:34.624Z,21.58
2022-09-30T04:42:38.207Z,21.59
2022-09-30T04:43:41.251Z,21.59
2022-09-30T04:44:43.491Z,21.58
2022-09-30T04:45:45.622Z,21.59
2022-09-30T04:46:47.773Z,21.59
2022-09-30T04:47:49.880Z,21.58
2022-09-30T04:48:52.075Z,21.59
2022-09-30T04:49:55.417Z,21.59
2022-09-30T04:50:58.290Z,21.60
2022-09-30T04:52:01.267Z,21.61
2022-09-30T04:53:03.410Z,21.60
2022-09-30T04:54:05.430Z,21.62
2022-09-30T04:55:07.949Z,21.61
2022-09-30T04:56:10.696Z,21.62
2022-09-30T04:57:12.695Z,21.61
2022-09-30T04:58:14.978Z,21.62
2022-09-30T04:59:17.320Z,21.53
2022-09-30T05:00:19.521Z,21.53
2022-09-30T05:01:22.127Z,21.63
2022-09-30T05:02:24.407Z,21.63
2022-09-30T05:03:26.529Z,21.62
2022-09-30T05:04:30.051Z,21.62
2022-09-30T05:05:32.448Z,21.61
2022-09-30T05:06:34.560Z,21.60
2022-09-30T05:07:36.642Z,21.60
2022-09-30T05:08:44.649Z,21.62
2022-09-30T05:09:44.262Z,21.62
2022-09-30T05:12:01.410Z,21.73
2022-09-30T05:13:04.139Z,21.62
2022-09-30T05:14:07.727Z,21.63
2022-09-30T05:15:11.565Z,21.62
2022-09-30T05:16:14.487Z,21.63
2022-09-30T05:17:17.131Z,21.63
2022-09-30T05:18:19.833Z,21.63
2022-09-30T05:19:22.077Z,21.63
2022-09-30T05:20:24.898Z,21.63
2022-09-30T05:21:27.577Z,21.63
2022-09-30T05:22:29.896Z,21.63
2022-09-30T05:23:32.350Z,21.64
2022-09-30T05:24:34.317Z,21.64
2022-09-30T05:25:36.428Z,21.65
2022-09-30T05:26:39.190Z,21.65
2022-09-30T05:27:41.196Z,21.66
2022-09-30T05:28:43.276Z,21.64
2022-09-30T05:29:46.379Z,21.65
2022-09-30T05:32:03.951Z,21.76
2022-09-30T05:33:06.132Z,21.55
2022-09-30T05:34:08.152Z,21.65
2022-09-30T05:35:10.108Z,21.65
2022-09-30T05:36:13.952Z,21.65
2022-09-30T05:37:16.117Z,21.65
2022-09-30T05:38:19.833Z,21.64
2022-09-30T05:39:21.867Z,21.65
2022-09-30T05:40:25.450Z,21.64
2022-09-30T05:41:27.962Z,21.64
2022-09-30T05:42:31.075Z,21.67
2022-09-30T05:43:34.962Z,21.66
2022-09-30T05:44:38.479Z,21.65
2022-09-30T05:45:41.078Z,21.67
2022-09-30T05:46:43.409Z,21.65
2022-09-30T05:47:52.674Z,21.67
2022-09-30T05:48:55.358Z,21.67
2022-09-30T05:49:59.311Z,21.68
2022-09-30T05:51:02.586Z,21.68
2022-09-30T05:52:05.731Z,21.67
2022-09-30T05:53:07.955Z,21.69
2022-09-30T05:54:10.780Z,21.69
2022-09-30T05:55:13.017Z,21.69
2022-09-30T05:56:15.345Z,21.69
2022-09-30T05:57:17.582Z,21.70
2022-09-30T05:58:19.681Z,21.70
2022-09-30T05:59:22.352Z,21.71
2022-09-30T06:00:24.732Z,21.70
2022-09-30T06:01:27.792Z,21.71
2022-09-30T06:02:30.078Z,21.70
2022-09-30T06:03:32.313Z,21.71
2022-09-30T06:04:34.449Z,21.71
2022-09-30T06:05:36.751Z,21.72
2022-09-30T06:06:38.856Z,21.71
2022-09-30T06:07:40.857Z,21.71
2022-09-30T06:08:44.010Z,21.72
2022-09-30T06:09:46.229Z,21.72
2022-09-30T06:10:49.619Z,21.73
2022-09-30T06:11:51.673Z,21.71
2022-09-30T06:12:55.149Z,21.73
2022-09-30T06:13:57.423Z,21.72
2022-09-30T06:15:00.606Z,21.72
2022-09-30T06:16:05.055Z,21.72
2022-09-30T06:17:07.384Z,21.71
2022-09-30T06:18:09.518Z,21.73
2022-09-30T06:19:11.632Z,21.73
2022-09-30T06:20:15.064Z,21.73
2022-09-30T06:21:17.254Z,21.73
2022-09-30T06:22:19.824Z,21.73
2022-09-30T06:23:21.957Z,21.73
2022-09-30T06:24:24.166Z,21.73
2022-09-30T06:25:28.305Z,21.74
2022-09-30T06:26:31.160Z,21.74
2022-09-30T06:27:33.268Z,21.73
2022-09-30T06:28:35.284Z,21.72
2022-09-30T06:29:37.682Z,21.72
2022-09-30T06:30:40.507Z,21.72
2022-09-30T06:31:42.655Z,21.73
2022-09-30T06:32:44.766Z,21.73
2022-09-30T06:33:47.100Z,21.74
2022-09-30T06:34:49.190Z,21.72
2022-09-30T06:35:51.289Z,21.73
2022-09-30T06:36:53.493Z,21.73
2022-09-30T06:37:55.460Z,21.73
2022-09-30T06:38:58.655Z,21.73
2022-09-30T06:40:01.176Z,21.72
2022-09-30T06:41:04.467Z,21.73
2022-09-30T06:42:06.797Z,21.73
2022-09-30T06:43:10.523Z,21.73
2022-09-30T06:44:12.509Z,21.75
2022-09-30T06:45:28.192Z,21.76
2022-09-30T06:46:26.169Z,21.76
2022-09-30T06:47:26.176Z,21.77
2022-09-30T06:48:37.952Z,21.76
2022-09-30T06:49:45.736Z,21.75
2022-09-30T06:50:37.426Z,21.75
2022-09-30T06:51:39.535Z,21.75
2022-09-30T06:52:42.722Z,21.74
2022-09-30T06:53:45.069Z,21.75
2022-09-30T06:54:47.108Z,21.75
2022-09-30T06:55:53.099Z,21.74
2022-09-30T06:56:56.088Z,21.75
2022-09-30T06:57:58.863Z,21.76
2022-09-30T06:59:01.145Z,21.76
2022-09-30T07:00:05.569Z,21.76
2022-09-30T07:01:07.832Z,21.76
2022-09-30T07:02:10.839Z,21.76
2022-09-30T07:03:20.101Z,21.75
2022-09-30T07:04:23.358Z,21.75
2022-09-30T07:05:25.523Z,21.76
2022-09-30T07:06:28.711Z,21.75
2022-09-30T07:07:31.767Z,21.76
2022-09-30T07:08:35.106Z,21.76
2022-09-30T07:09:37.672Z,21.78
2022-09-30T07:10:40.294Z,21.79
2022-09-30T07:11:42.475Z,21.79
2022-09-30T07:12:46.376Z,21.81
2022-09-30T07:13:48.938Z,21.80
2022-09-30T07:14:51.272Z,21.81
2022-09-30T07:15:53.352Z,21.81
2022-09-30T07:16:55.811Z,21.82
2022-09-30T07:17:57.996Z,21.83
2022-09-30T07:19:01.168Z,21.86
2022-09-30T07:20:06.497Z,21.87
2022-09-30T07:21:09.891Z,21.86
2022-09-30T07:22:12.050Z,21.86
2022-09-30T07:23:14.040Z,21.86
2022-09-30T07:25:30.513Z,21.97
2022-09-30T07:26:33.580Z,21.89
2022-09-30T07:27:35.672Z,21.90
2022-09-30T07:28:38.439Z,21.90
2022-09-30T07:30:04.250Z,21.90
2022-09-30T07:30:45.192Z,21.90
2022-09-30T07:31:47.195Z,21.92
2022-09-30T07:32:49.844Z,21.93
2022-09-30T07:33:52.070Z,21.95
2022-09-30T07:34:55.306Z,21.93
2022-09-30T07:35:58.897Z,21.94
2022-09-30T07:37:01.218Z,21.95
2022-09-30T07:38:03.199Z,21.94
2022-09-30T07:39:07.578Z,21.95
2022-09-30T07:40:11.955Z,21.95
2022-09-30T07:41:15.752Z,21.92
2022-09-30T07:42:22.297Z,21.89
2022-09-30T07:43:22.272Z,21.89
2022-09-30T07:44:24.561Z,21.89
2022-09-30T07:45:26.876Z,21.90
2022-09-30T07:46:31.088Z,21.90
2022-09-30T07:47:33.442Z,21.92
2022-09-30T07:48:38.290Z,21.92
2022-09-30T07:49:41.564Z,21.89
2022-09-30T07:50:43.791Z,21.88
2022-09-30T07:51:45.887Z,21.89
2022-09-30T07:52:48.593Z,21.88
2022-09-30T07:53:57.436Z,21.89
2022-09-30T07:54:59.487Z,21.90
2022-09-30T07:56:04.909Z,21.87
2022-09-30T07:57:11.259Z,21.87
2022-09-30T07:58:11.749Z,21.87
2022-09-30T07:59:13.879Z,21.90
2022-09-30T08:00:41.150Z,21.90
2022-09-30T08:01:23.068Z,21.91
2022-09-30T08:02:25.350Z,21.91
2022-09-30T08:03:27.697Z,21.92
2022-09-30T08:04:30.122Z,21.92
2022-09-30T08:05:32.099Z,21.92
2022-09-30T08:06:40.072Z,21.92
2022-09-30T08:07:42.517Z,21.92
2022-09-30T08:08:44.620Z,21.93
2022-09-30T08:09:46.790Z,21.93
2022-09-30T08:10:49.283Z,21.92
2022-09-30T08:11:51.369Z,21.92
2022-09-30T08:12:56.114Z,21.93
2022-09-30T08:13:58.396Z,21.95
2022-09-30T08:15:01.215Z,21.95
2022-09-30T08:16:03.912Z,21.96
2022-09-30T08:17:06.555Z,21.96
2022-09-30T08:18:09.718Z,21.98
2022-09-30T08:19:18.198Z,21.97
2022-09-30T08:20:22.570Z,21.98
2022-09-30T08:21:27.020Z,21.98
2022-09-30T08:22:30.254Z,21.99
2022-09-30T08:23:33.627Z,21.99
2022-09-30T08:24:36.160Z,21.98
2022-09-30T08:25:39.802Z,21.99
2022-09-30T08:26:43.232Z,21.99
2022-09-30T08:27:45.508Z,21.99
2022-09-30T08:28:47.616Z,21.97
2022-09-30T08:29:55.026Z,21.98
2022-09-30T08:30:54.607Z,21.97
2022-09-30T08:31:59.408Z,21.97
2022-09-30T08:33:02.768Z,21.98
2022-09-30T08:34:07.372Z,21.97
2022-09-30T08:35:10.647Z,21.97
2022-09-30T08:37:34.203Z,22.09
2022-09-30T08:38:36.485Z,21.99
2022-09-30T08:39:41.411Z,21.97
2022-09-30T08:42:39.588Z,22.07
2022-09-30T08:44:06.497Z,21.96
2022-09-30T08:45:19.597Z,21.93
2022-09-30T08:46:37.951Z,21.91
2022-09-30T08:48:02.484Z,21.88
2022-09-30T08:49:08.525Z,21.82
2022-09-30T08:50:20.844Z,21.76
2022-09-30T08:51:36.803Z,21.72
2022-09-30T08:53:54.054Z,21.79
2022-09-30T08:54:56.527Z,21.70
2022-09-30T08:55:59.280Z,21.71
2022-09-30T08:57:02.400Z,21.71
2022-09-30T08:58:10.924Z,21.71
2022-09-30T08:59:23.699Z,21.72
2022-09-30T09:00:25.941Z,21.75
2022-09-30T09:01:32.006Z,21.76
2022-09-30T09:02:37.975Z,21.78
2022-09-30T09:03:41.238Z,21.78
2022-09-30T09:04:43.867Z,21.81
2022-09-30T09:06:04.673Z,21.81
2022-09-30T09:07:26.224Z,21.83
2022-09-30T09:08:50.134Z,21.85
2022-09-30T09:10:14.332Z,21.86
2022-09-30T09:11:43.638Z,21.88
2022-09-30T09:13:05.862Z,21.87
2022-09-30T09:14:37.834Z,21.85
2022-09-30T09:15:59.053Z,21.84
2022-09-30T09:19:09.269Z,21.96
2022-09-30T09:20:16.968Z,21.86
2022-09-30T09:21:21.699Z,21.87
2022-09-30T09:22:25.232Z,21.87
2022-09-30T09:23:27.500Z,21.88
2022-09-30T09:24:39.278Z,21.89
2022-09-30T09:25:42.026Z,21.90
2022-09-30T09:26:44.135Z,21.90
2022-09-30T09:27:53.638Z,21.92
2022-09-30T09:30:13.830Z,22.06
2022-09-30T09:31:17.365Z,21.96
2022-09-30T09:32:19.793Z,21.96
2022-09-30T09:33:23.501Z,21.97
2022-09-30T09:34:27.482Z,21.97
2022-09-30T09:35:48.299Z,21.98
2022-09-30T09:37:13.941Z,22.01
2022-09-30T09:38:25.605Z,22.02
2022-09-30T09:39:46.508Z,22.05
2022-09-30T09:42:53.064Z,22.18
2022-09-30T09:45:50.410Z,22.16
2022-09-30T09:47:11.422Z,22.06
2022-09-30T09:48:13.478Z,22.06
2022-09-30T09:49:40.006Z,22.06
2022-09-30T09:50:54.826Z,22.05
2022-09-30T09:52:00.679Z,22.06
2022-09-30T09:53:23.057Z,22.06
2022-09-30T09:54:25.804Z,22.06
2022-09-30T09:55:28.350Z,22.07
2022-09-30T09:56:32.655Z,22.08
2022-09-30T09:57:35.225Z,22.08
2022-09-30T09:58:37.423Z,22.08
2022-09-30T10:01:10.067Z,22.22
2022-09-30T10:02:30.659Z,22.13
2022-09-30T10:03:32.769Z,22.14
2022-09-30T10:04:36.670Z,22.14
2022-09-30T10:05:38.919Z,22.15
2022-09-30T10:06:46.978Z,22.16
2022-09-30T10:07:49.033Z,22.18
2022-09-30T10:08:55.014Z,22.18
2022-09-30T10:10:22.543Z,22.21
2022-09-30T10:11:24.178Z,22.20
2022-09-30T10:12:27.048Z,22.21
2022-09-30T10:13:31.037Z,22.21
2022-09-30T10:14:38.511Z,22.24
2022-09-30T10:15:43.413Z,22.22
2022-09-30T10:16:45.613Z,22.23
2022-09-30T10:17:56.000Z,22.24
2022-09-30T10:18:58.679Z,22.25
2022-09-30T10:20:07.829Z,22.25
2022-09-30T10:21:23.119Z,22.25
2022-09-30T10:23:39.810Z,22.36
2022-09-30T10:24:42.428Z,22.25
2022-09-30T10:26:05.641Z,22.25
2022-09-30T10:28:54.176Z,22.35
2022-09-30T10:29:56.283Z,22.23
2022-09-30T10:32:14.512Z,22.33
2022-09-30T10:33:20.140Z,22.23
2022-09-30T10:34:28.053Z,22.23
2022-09-30T10:35:30.314Z,22.24
2022-09-30T10:36:37.790Z,22.25
2022-09-30T10:37:40.435Z,22.25
2022-09-30T10:39:02.596Z,22.25
2022-09-30T10:40:10.280Z,22.25
2022-09-30T10:41:13.186Z,22.25
2022-09-30T10:43:36.048Z,22.35
2022-09-30T10:44:43.621Z,22.22
2022-09-30T10:46:01.312Z,22.22
2022-09-30T10:46:52.759Z,22.21
2022-09-30T10:47:56.089Z,22.22
2022-09-30T10:48:58.778Z,22.22
2022-09-30T10:51:34.007Z,22.35
2022-09-30T10:52:39.060Z,22.24
2022-09-30T10:53:42.407Z,22.25
2022-09-30T10:56:03.514Z,22.38
2022-09-30T10:58:50.156Z,22.40
2022-09-30T10:59:55.284Z,22.30
2022-09-30T11:01:01.251Z,22.30
2022-09-30T11:03:38.921Z,22.42
2022-09-30T11:04:44.689Z,22.31
2022-09-30T11:05:47.737Z,22.33
2022-09-30T11:06:53.152Z,22.34
2022-09-30T11:08:04.716Z,22.36
2022-09-30T11:09:10.554Z,22.35
2022-09-30T11:10:19.965Z,22.37
2022-09-30T11:11:35.066Z,22.37
2022-09-30T11:12:47.560Z,22.36
2022-09-30T11:13:58.714Z,22.35
2022-09-30T11:15:21.666Z,22.36
2022-09-30T11:16:27.745Z,22.35
2022-09-30T11:18:57.793Z,22.44
2022-09-30T11:20:15.855Z,22.33
2022-09-30T11:21:21.365Z,22.33
2022-09-30T11:22:50.948Z,22.33
2022-09-30T11:23:57.357Z,22.33
2022-09-30T11:24:59.518Z,22.35
2022-09-30T11:26:21.635Z,22.35
2022-09-30T11:27:33.748Z,22.35
2022-09-30T11:30:24.069Z,22.45
2022-09-30T11:32:53.490Z,22.44
2022-09-30T11:34:12.082Z,22.33
2022-09-30T11:35:33.376Z,22.32
2022-09-30T11:36:49.780Z,22.33
2022-09-30T11:38:11.625Z,22.33
2022-09-30T11:41:03.989Z,22.45
2022-09-30T11:43:34.748Z,22.46
2022-09-30T11:44:38.474Z,22.36
2022-09-30T11:46:09.037Z,22.35
2022-09-30T11:47:27.421Z,22.34
2022-09-30T11:48:51.580Z,22.36
2022-09-30T11:51:54.523Z,22.44
2022-09-30T11:54:40.065Z,22.43
2022-09-30T11:56:10.475Z,22.32
2022-09-30T11:57:22.121Z,22.31
2022-09-30T11:58:41.083Z,22.32
2022-09-30T12:01:15.194Z,22.43
2022-09-30T12:02:33.289Z,22.32
2022-09-30T12:03:39.692Z,22.32
2022-09-30T12:04:42.815Z,22.32
2022-09-30T12:05:48.479Z,22.33
2022-09-30T12:06:55.310Z,22.32
2022-09-30T12:08:00.155Z,22.34
2022-09-30T12:09:09.620Z,22.34
2022-09-30T12:10:20.780Z,22.35
2022-09-30T12:11:38.679Z,22.36
2022-09-30T12:12:40.846Z,22.38
2022-09-30T12:13:46.307Z,22.38
2022-09-30T12:14:51.290Z,22.40
2022-09-30T12:15:54.102Z,22.41
2022-09-30T12:16:56.653Z,22.41
2022-09-30T12:18:15.005Z,22.44
2022-09-30T12:19:40.543Z,22.44
2022-09-30T12:20:53.670Z,22.45
2022-09-30T12:22:11.431Z,22.45
2022-09-30T12:23:27.643Z,22.44
2022-09-30T12:24:38.812Z,22.47
2022-09-30T12:25:46.568Z,22.46
2022-09-30T12:26:49.471Z,22.46
2022-09-30T12:27:58.358Z,22.46
2022-09-30T12:30:21.827Z,22.58
2022-09-30T12:31:45.520Z,22.47
2022-09-30T12:33:06.892Z,22.46
2022-09-30T12:34:39.034Z,22.48
2022-09-30T12:36:16.550Z,22.46
2022-09-30T12:37:32.577Z,22.46
2022-09-30T12:38:47.475Z,22.44
2022-09-30T12:40:14.858Z,22.44
2022-09-30T12:42:56.326Z,22.53
2022-09-30T12:44:29.366Z,22.43
2022-09-30T12:57:42.754Z,22.56
2022-09-30T12:58:49.893Z,22.47
2022-09-30T13:01:23.086Z,22.59
2022-09-30T13:02:34.395Z,22.49
2022-09-30T13:04:01.644Z,22.50
2022-09-30T13:05:29.121Z,22.52
2022-09-30T13:06:50.708Z,22.50
2022-09-30T13:08:08.738Z,22.51
2022-09-30T13:10:27.798Z,22.62
2022-09-30T13:11:39.800Z,22.53
2022-09-30T13:12:44.339Z,22.52
2022-09-30T13:14:15.880Z,22.53
2022-09-30T13:15:33.959Z,22.53
2022-09-30T13:17:09.141Z,22.54
2022-09-30T13:18:24.303Z,22.55
2022-09-30T13:19:35.411Z,22.55
2022-09-30T13:20:52.908Z,22.54
2022-09-30T13:22:16.393Z,22.54
2022-09-30T13:25:03.282Z,22.65
2022-09-30T13:27:53.684Z,22.66
2022-09-30T13:29:02.698Z,22.55
2022-09-30T13:30:17.889Z,22.56
2022-09-30T13:31:21.548Z,22.55
2022-09-30T13:32:32.286Z,22.55
2022-09-30T13:34:01.231Z,22.56
2022-09-30T13:35:23.865Z,22.57
2022-09-30T13:37:42.165Z,22.67
2022-09-30T13:38:44.534Z,22.56
2022-09-30T13:39:53.784Z,22.56
2022-09-30T13:42:27.129Z,22.69
2022-09-30T13:43:42.025Z,22.58
2022-09-30T13:45:03.295Z,22.59
2022-09-30T13:46:36.813Z,22.61
2022-09-30T13:47:45.687Z,22.61
2022-09-30T13:48:50.674Z,22.63
2022-09-30T13:50:19.879Z,22.65
2022-09-30T13:51:22.147Z,22.66
2022-09-30T13:52:26.135Z,22.66
2022-09-30T13:53:34.373Z,22.66
2022-09-30T13:54:39.633Z,22.67
2022-09-30T13:55:43.142Z,22.67
2022-09-30T13:56:45.647Z,22.70
2022-09-30T13:59:49.381Z,22.79
2022-09-30T14:00:58.489Z,22.69
2022-09-30T14:02:05.581Z,22.67
2022-09-30T14:03:20.657Z,22.66
2022-09-30T14:06:16.791Z,22.78
2022-09-30T14:08:55.780Z,22.79
2022-09-30T14:10:33.156Z,22.69
2022-09-30T14:11:39.533Z,22.68
2022-09-30T14:13:00.631Z,22.69
2022-09-30T14:14:29.425Z,22.68
2022-09-30T14:15:44.336Z,22.69
2022-09-30T14:16:59.956Z,22.67
2022-09-30T14:18:32.858Z,22.67
2022-09-30T14:21:18.624Z,22.75
2022-09-30T14:23:37.223Z,22.72
2022-09-30T14:24:39.562Z,22.59
2022-09-30T14:26:01.009Z,22.58
2022-09-30T14:27:34.610Z,22.59
2022-09-30T14:28:49.561Z,22.59
2022-09-30T14:30:07.309Z,22.59
2022-09-30T14:31:10.880Z,22.59
2022-09-30T14:32:20.554Z,22.59
2022-09-30T14:33:23.876Z,22.58
2022-09-30T14:34:26.928Z,22.57
2022-09-30T14:36:06.583Z,22.58
2022-09-30T14:37:45.404Z,22.58
2022-09-30T14:38:55.183Z,22.58
2022-09-30T14:39:59.342Z,22.58
2022-09-30T14:41:04.289Z,22.57
2022-09-30T14:42:09.849Z,22.57
2022-09-30T14:43:18.465Z,22.56
2022-09-30T14:44:18.880Z,22.56
2022-09-30T14:45:25.869Z,22.57
2022-09-30T14:46:33.559Z,22.57
2022-09-30T14:47:43.216Z,22.57
2022-09-30T14:48:45.828Z,22.58
2022-09-30T14:49:48.480Z,22.58
2022-09-30T14:51:03.317Z,22.61
2022-09-30T14:52:06.084Z,22.61
2022-09-30T14:54:42.646Z,22.70
2022-09-30T14:55:49.087Z,22.61
2022-09-30T14:56:52.192Z,22.60
2022-09-30T14:58:18.155Z,22.59
2022-09-30T14:59:26.129Z,22.61
2022-09-30T15:00:33.025Z,22.63
2022-09-30T15:01:40.208Z,22.63
2022-09-30T15:02:47.618Z,22.64
2022-09-30T15:04:10.343Z,22.67
2022-09-30T15:05:13.833Z,22.69
2022-09-30T15:06:32.213Z,22.70
2022-09-30T15:07:43.380Z,22.71
2022-09-30T15:08:46.489Z,22.71
2022-09-30T15:09:49.646Z,22.72
2022-09-30T15:10:53.794Z,22.73
2022-09-30T15:11:57.030Z,22.72
2022-09-30T15:13:01.026Z,22.73
2022-09-30T15:14:18.790Z,22.73
2022-09-30T15:16:49.738Z,22.83
2022-09-30T15:17:52.634Z,22.74
2022-09-30T15:18:56.783Z,22.73
2022-09-30T15:19:59.409Z,22.73
2022-09-30T15:21:10.893Z,22.72
2022-09-30T15:22:14.895Z,22.72
2022-09-30T15:23:22.200Z,22.73
2022-09-30T15:24:24.656Z,22.72
2022-09-30T15:25:28.650Z,22.72
2022-09-30T15:26:32.140Z,22.71
2022-09-30T15:27:35.887Z,22.72
2022-09-30T15:28:39.366Z,22.72
2022-09-30T15:31:29.307Z,22.81
2022-09-30T15:32:33.978Z,22.71
2022-09-30T15:33:41.526Z,22.68
2022-09-30T15:34:43.774Z,22.67
2022-09-30T15:35:47.121Z,22.66
2022-09-30T15:38:25.015Z,22.75
2022-09-30T15:39:27.866Z,22.62
2022-09-30T15:40:30.345Z,22.59
2022-09-30T15:41:41.980Z,22.58
2022-09-30T15:42:57.909Z,22.56
2022-09-30T15:44:00.481Z,22.54
2022-09-30T15:45:06.211Z,22.53
2022-09-30T15:46:19.036Z,22.52
2022-09-30T15:47:22.568Z,22.51
2022-09-30T15:48:29.668Z,22.50
2022-09-30T15:49:41.272Z,22.49
2022-09-30T15:50:51.526Z,22.50
2022-09-30T15:51:56.201Z,22.49
2022-09-30T15:54:32.707Z,22.59
2022-09-30T15:56:50.312Z,22.57
2022-09-30T15:57:54.684Z,22.47
2022-09-30T16:00:39.287Z,22.56
2022-09-30T16:01:44.142Z,22.46
2022-09-30T16:02:46.495Z,22.45
2022-09-30T16:03:57.783Z,22.45
2022-09-30T16:05:00.554Z,22.44
2022-09-30T16:06:13.046Z,22.45
2022-09-30T16:07:16.552Z,22.46
2022-09-30T16:09:38.988Z,22.55
2022-09-30T16:10:42.342Z,22.44
2022-09-30T16:11:46.564Z,22.44
2022-09-30T16:12:49.868Z,22.43
2022-09-30T16:13:53.877Z,22.44
2022-09-30T16:15:08.987Z,22.44
2022-09-30T16:16:19.318Z,22.44
2022-09-30T16:17:27.307Z,22.44
2022-09-30T16:18:34.009Z,22.44
2022-09-30T16:19:36.432Z,22.42
2022-09-30T16:20:42.158Z,22.43
2022-09-30T16:21:48.641Z,22.43
2022-09-30T16:22:56.199Z,22.32
2022-09-30T16:23:58.395Z,22.43
2022-09-30T16:25:05.835Z,22.43
2022-09-30T16:27:37.932Z,22.53
2022-09-30T16:28:41.507Z,22.41
2022-09-30T16:29:46.093Z,22.41
2022-09-30T16:30:49.234Z,22.40